createdAt,value
2023-11-17T00:00:13.078Z,7.13
2023-11-17T00:01:15.274Z,7.52
2023-11-17T00:02:17.312Z,7.82
2023-11-17T00:03:20.023Z,7.90
2023-11-17T00:04:22.868Z,8.45
2023-11-17T00:05:24.846Z,8.38
2023-11-17T00:06:26.889Z,8.12
2023-11-17T00:07:29.575Z,7.57
2023-11-17T00:08:33.086Z,8.17
2023-11-17T00:09:35.068Z,7.47
2023-11-17T00:10:37.060Z,7.67
2023-11-17T00:11:39.207Z,7.88
2023-11-17T00:12:42.756Z,7.60
2023-11-17T00:13:44.968Z,7.68
2023-11-17T00:14:48.870Z,8.27
2023-11-17T00:15:52.014Z,8.00
2023-11-17T00:16:54.198Z,8.10
2023-11-17T00:17:56.260Z,8.43
2023-11-17T00:18:58.399Z,7.87
2023-11-17T00:20:00.421Z,8.03
2023-11-17T00:21:04.271Z,8.27
2023-11-17T00:22:06.320Z,7.48
2023-11-17T00:23:08.380Z,8.53
2023-11-17T00:24:10.655Z,8.48
2023-11-17T00:25:13.068Z,8.43
2023-11-17T00:26:15.105Z,7.95
2023-11-17T00:27:17.933Z,8.02
2023-11-17T00:28:20.018Z,8.55
2023-11-17T00:29:22.031Z,7.88
2023-11-17T00:30:24.562Z,8.15
2023-11-17T00:31:32.136Z,8.02
2023-11-17T00:32:34.142Z,8.15
2023-11-17T00:33:39.310Z,7.95
2023-11-17T00:34:41.285Z,7.58
2023-11-17T00:35:46.660Z,7.92
2023-11-17T00:36:48.832Z,7.88
2023-11-17T00:37:52.643Z,8.12
2023-11-17T00:38:54.726Z,7.82
2023-11-17T00:39:59.571Z,7.92
2023-11-17T00:41:01.755Z,8.02
2023-11-17T00:42:04.416Z,8.23
2023-11-17T00:43:06.987Z,8.33
2023-11-17T00:44:09.001Z,8.25
2023-11-17T00:45:11.153Z,7.62
2023-11-17T00:46:15.276Z,8.03
2023-11-17T00:47:17.453Z,7.78
2023-11-17T00:48:19.508Z,8.28
2023-11-17T00:49:21.806Z,7.48
2023-11-17T00:50:24.577Z,7.90
2023-11-17T00:51:26.669Z,8.08
2023-11-17T00:52:28.676Z,8.30
2023-11-17T00:53:30.700Z,8.27
2023-11-17T00:54:37.476Z,8.50
2023-11-17T00:55:41.600Z,8.40
2023-11-17T00:56:43.714Z,8.60
2023-11-17T00:57:45.709Z,8.38
2023-11-17T00:58:47.747Z,8.57
2023-11-17T00:59:49.739Z,8.28
2023-11-17T01:00:52.368Z,8.57
2023-11-17T01:01:54.734Z,8.13
2023-11-17T01:02:56.868Z,8.13
2023-11-17T01:03:58.893Z,8.23
2023-11-17T01:05:00.916Z,8.07
2023-11-17T01:06:02.872Z,8.17
2023-11-17T01:07:04.860Z,8.18
2023-11-17T01:08:08.185Z,8.07
2023-11-17T01:09:10.150Z,7.87
2023-11-17T01:10:12.163Z,8.43
2023-11-17T01:11:14.228Z,8.12
2023-11-17T01:12:16.292Z,8.52
2023-11-17T01:13:18.666Z,8.55
2023-11-17T01:14:21.065Z,8.33
2023-11-17T01:15:23.046Z,8.07
2023-11-17T01:16:25.151Z,8.30
2023-11-17T01:17:27.234Z,8.25
2023-11-17T01:18:29.341Z,8.03
2023-11-17T01:19:31.276Z,7.90
2023-11-17T01:20:33.986Z,8.27
2023-11-17T01:21:35.967Z,7.87
2023-11-17T01:22:37.955Z,8.35
2023-11-17T01:23:40.022Z,8.35
2023-11-17T01:24:42.025Z,8.00
2023-11-17T01:25:44.636Z,8.22
2023-11-17T01:26:47.205Z,8.28
2023-11-17T01:27:49.214Z,8.57
2023-11-17T01:28:51.208Z,8.43
2023-11-17T01:29:53.234Z,8.05
2023-11-17T01:30:55.260Z,8.27
2023-11-17T01:31:57.310Z,8.50
2023-11-17T01:32:59.312Z,8.08
2023-11-17T01:34:01.353Z,8.25
2023-11-17T01:35:04.992Z,8.95
2023-11-17T01:36:07.425Z,8.27
2023-11-17T01:37:09.829Z,8.55
2023-11-17T01:38:14.726Z,8.58
2023-11-17T01:39:16.669Z,8.30
2023-11-17T01:40:23.589Z,8.77
2023-11-17T01:41:25.682Z,9.02
2023-11-17T01:42:33.208Z,8.88
2023-11-17T01:43:35.241Z,9.05
2023-11-17T01:44:37.218Z,8.82
2023-11-17T01:45:40.752Z,8.93
2023-11-17T01:46:43.045Z,8.82
2023-11-17T01:47:45.875Z,8.80
2023-11-17T01:48:47.876Z,8.90
2023-11-17T01:49:49.868Z,8.90
2023-11-17T01:50:51.832Z,8.72
2023-11-17T01:51:53.849Z,8.45
2023-11-17T01:52:57.002Z,8.65
2023-11-17T01:53:59.220Z,8.30
2023-11-17T01:55:07.090Z,8.72
2023-11-17T01:56:09.143Z,8.75
2023-11-17T01:57:13.107Z,8.75
2023-11-17T01:58:16.230Z,9.17
2023-11-17T01:59:22.704Z,9.37
2023-11-17T02:00:25.018Z,9.40
2023-11-17T02:01:28.763Z,9.17
2023-11-17T02:02:31.427Z,9.07
2023-11-17T02:03:33.554Z,9.55
2023-11-17T02:04:35.577Z,9.80
2023-11-17T02:05:37.610Z,8.90
2023-11-17T02:06:49.190Z,9.50
2023-11-17T02:07:53.691Z,9.23
2023-11-17T02:09:15.242Z,9.25
2023-11-17T02:10:26.650Z,9.53
2023-11-17T02:11:36.850Z,9.63
2023-11-17T02:12:55.543Z,9.47
2023-11-17T02:14:20.850Z,9.33
2023-11-17T02:15:26.100Z,9.40
2023-11-17T02:16:30.401Z,9.47
2023-11-17T02:17:35.672Z,9.90
2023-11-17T02:18:38.551Z,9.53
2023-11-17T02:19:42.001Z,9.63
2023-11-17T02:20:46.059Z,9.48
2023-11-17T02:21:48.715Z,9.62
2023-11-17T02:22:51.222Z,9.68
2023-11-17T02:23:53.163Z,9.68
2023-11-17T02:25:18.017Z,10.10
2023-11-17T02:26:35.657Z,9.68
2023-11-17T02:27:41.792Z,10.23
2023-11-17T02:29:08.435Z,9.42
2023-11-17T02:30:10.640Z,9.43
2023-11-17T02:31:20.475Z,8.97
2023-11-17T02:32:25.844Z,9.63
2023-11-17T02:33:27.954Z,9.02
2023-11-17T02:34:29.997Z,9.90
2023-11-17T02:35:35.721Z,10.13
2023-11-17T02:36:40.460Z,10.18
2023-11-17T02:37:43.069Z,9.98
2023-11-17T02:39:15.964Z,9.42
2023-11-17T02:40:22.128Z,9.73
2023-11-17T02:41:30.591Z,9.50
2023-11-17T02:42:38.651Z,9.67
2023-11-17T02:43:43.533Z,10.20
2023-11-17T02:44:46.345Z,10.62
2023-11-17T02:45:48.376Z,10.33
2023-11-17T02:47:00.154Z,9.80
2023-11-17T02:48:05.349Z,9.85
2023-11-17T02:49:19.083Z,10.02
2023-11-17T02:50:23.491Z,10.27
2023-11-17T02:51:33.744Z,10.28
2023-11-17T02:53:05.597Z,10.32
2023-11-17T02:54:09.875Z,10.42
2023-11-17T02:55:11.913Z,10.45
2023-11-17T02:56:13.861Z,9.95
2023-11-17T02:57:16.265Z,10.43
2023-11-17T02:58:18.481Z,10.35
2023-11-17T02:59:20.589Z,11.15
2023-11-17T03:00:23.815Z,10.73
2023-11-17T03:01:28.526Z,10.53
2023-11-17T03:02:30.520Z,10.62
2023-11-17T03:03:35.933Z,10.52
2023-11-17T03:04:40.539Z,10.72
2023-11-17T03:05:42.507Z,10.45
2023-11-17T03:06:47.750Z,10.62
2023-11-17T03:07:49.772Z,10.93
2023-11-17T03:08:51.715Z,10.48
2023-11-17T03:09:54.130Z,10.85
2023-11-17T03:11:03.681Z,10.33
2023-11-17T03:12:08.409Z,11.10
2023-11-17T03:13:17.327Z,10.60
2023-11-17T03:14:25.668Z,10.52
2023-11-17T03:15:29.542Z,10.72
2023-11-17T03:16:31.552Z,10.38
2023-11-17T03:17:34.281Z,10.40
2023-11-17T03:18:40.239Z,10.58
2023-11-17T03:19:42.694Z,10.45
2023-11-17T03:20:47.680Z,11.18
2023-11-17T03:21:49.712Z,10.57
2023-11-17T03:22:51.724Z,10.50
2023-11-17T03:23:53.666Z,10.53
2023-11-17T03:24:59.094Z,10.53
2023-11-17T03:26:01.478Z,10.27
2023-11-17T03:27:04.212Z,10.48
2023-11-17T03:28:11.823Z,10.50
2023-11-17T03:29:15.387Z,10.35
2023-11-17T03:30:19.315Z,10.37
2023-11-17T03:31:21.506Z,10.12
2023-11-17T03:32:23.554Z,10.48
2023-11-17T03:33:25.782Z,9.90
2023-11-17T03:34:31.011Z,10.42
2023-11-17T03:35:33.346Z,10.40
2023-11-17T03:36:35.393Z,10.47
2023-11-17T03:37:37.352Z,9.95
2023-11-17T03:38:39.803Z,10.05
2023-11-17T03:39:44.665Z,10.43
2023-11-17T03:40:46.917Z,10.00
2023-11-17T03:41:49.132Z,10.53
2023-11-17T03:42:51.619Z,10.25
2023-11-17T03:43:53.662Z,10.13
2023-11-17T03:44:58.371Z,10.42
2023-11-17T03:46:01.883Z,9.92
2023-11-17T03:47:08.161Z,10.07
2023-11-17T03:48:10.264Z,10.30
2023-11-17T03:49:13.107Z,10.03
2023-11-17T03:50:15.540Z,9.42
2023-11-17T03:51:19.323Z,9.75
2023-11-17T03:52:24.637Z,10.22
2023-11-17T03:53:27.114Z,10.00
2023-11-17T03:54:29.067Z,10.58
2023-11-17T03:55:33.264Z,9.87
2023-11-17T03:56:35.248Z,9.57
2023-11-17T03:57:38.164Z,9.88
2023-11-17T03:58:40.148Z,10.23
2023-11-17T03:59:47.599Z,9.87
2023-11-17T04:00:50.636Z,9.83
2023-11-17T04:01:52.780Z,10.23
2023-11-17T04:02:58.473Z,9.68
2023-11-17T04:04:00.833Z,9.32
2023-11-17T04:05:05.214Z,9.90
2023-11-17T04:06:07.340Z,10.32
2023-11-17T04:07:09.751Z,9.95
2023-11-17T04:08:11.763Z,10.23
2023-11-17T04:09:17.175Z,10.40
2023-11-17T04:10:20.380Z,9.67
2023-11-17T04:11:22.930Z,10.33
2023-11-17T04:12:24.908Z,10.07
2023-11-17T04:13:29.058Z,9.87
2023-11-17T04:14:40.941Z,8.90
2023-11-17T04:15:42.915Z,9.57
2023-11-17T04:16:48.138Z,9.47
2023-11-17T04:17:50.255Z,9.25
2023-11-17T04:18:52.267Z,9.50
2023-11-17T04:19:54.277Z,9.62
2023-11-17T04:20:56.245Z,9.72
2023-11-17T04:21:58.269Z,9.82
2023-11-17T04:23:01.613Z,9.45
2023-11-17T04:24:03.948Z,9.53
2023-11-17T04:25:06.727Z,9.32
2023-11-17T04:26:11.034Z,9.45
2023-11-17T04:27:13.368Z,9.60
2023-11-17T04:28:15.422Z,9.30
2023-11-17T04:29:17.400Z,9.47
2023-11-17T04:30:22.409Z,9.78
2023-11-17T04:31:25.034Z,9.32
2023-11-17T04:32:27.057Z,9.48
2023-11-17T04:33:29.464Z,8.82
2023-11-17T04:34:32.787Z,9.07
2023-11-17T04:35:34.787Z,9.03
2023-11-17T04:36:38.811Z,9.55
2023-11-17T04:37:41.573Z,9.05
2023-11-17T04:38:43.713Z,9.07
2023-11-17T04:39:46.156Z,8.83
2023-11-17T04:40:48.516Z,8.27
2023-11-17T04:41:50.491Z,9.05
2023-11-17T04:42:52.504Z,8.97
2023-11-17T04:43:54.509Z,8.83
2023-11-17T04:44:56.553Z,9.00
2023-11-17T04:45:58.593Z,9.62
2023-11-17T04:47:00.767Z,8.83
2023-11-17T04:48:05.991Z,8.62
2023-11-17T04:49:08.084Z,8.43
2023-11-17T04:50:11.488Z,8.77
2023-11-17T04:51:13.663Z,8.42
2023-11-17T04:52:15.728Z,8.57
2023-11-17T04:53:17.725Z,8.90
2023-11-17T04:54:19.738Z,9.38
2023-11-17T04:55:21.762Z,8.70
2023-11-17T04:56:23.724Z,8.50
2023-11-17T04:57:25.692Z,8.32
2023-11-17T04:58:27.780Z,8.67
2023-11-17T04:59:29.757Z,9.07
2023-11-17T05:00:34.654Z,8.52
2023-11-17T05:01:36.737Z,8.37
2023-11-17T05:02:42.049Z,8.33
2023-11-17T05:03:44.117Z,7.95
2023-11-17T05:04:46.120Z,8.20
2023-11-17T05:05:49.827Z,7.88
2023-11-17T05:06:51.853Z,7.93
2023-11-17T05:07:54.144Z,8.17
2023-11-17T05:08:56.121Z,7.68
2023-11-17T05:09:58.215Z,8.05
2023-11-17T05:11:01.135Z,7.65
2023-11-17T05:12:03.416Z,7.70
2023-11-17T05:13:06.891Z,7.93
2023-11-17T05:14:09.034Z,8.27
2023-11-17T05:15:13.996Z,7.80
2023-11-17T05:16:16.305Z,8.10
2023-11-17T05:17:18.440Z,7.65
2023-11-17T05:18:20.604Z,8.05
2023-11-17T05:19:23.176Z,7.80
2023-11-17T05:20:25.695Z,8.03
2023-11-17T05:21:27.783Z,8.27
2023-11-17T05:22:30.726Z,8.28
2023-11-17T05:23:32.749Z,7.93
2023-11-17T05:24:35.039Z,8.18
2023-11-17T05:25:37.597Z,8.02
2023-11-17T05:26:39.597Z,8.07
2023-11-17T05:27:42.227Z,8.75
2023-11-17T05:28:47.025Z,8.32
2023-11-17T05:29:49.020Z,8.18
2023-11-17T05:30:51.365Z,8.00
2023-11-17T05:31:53.451Z,8.18
2023-11-17T05:32:55.548Z,8.55
2023-11-17T05:34:02.647Z,7.87
2023-11-17T05:35:11.953Z,7.88
2023-11-17T05:36:14.492Z,7.48
2023-11-17T05:37:16.946Z,8.03
2023-11-17T05:38:18.968Z,8.07
2023-11-17T05:39:20.925Z,8.02
2023-11-17T05:40:22.960Z,7.72
2023-11-17T05:41:27.036Z,7.60
2023-11-17T05:42:32.029Z,7.98
2023-11-17T05:43:34.075Z,8.00
2023-11-17T05:44:36.441Z,7.60
2023-11-17T05:45:41.254Z,7.72
2023-11-17T05:46:46.101Z,7.68
2023-11-17T05:47:50.857Z,7.40
2023-11-17T05:48:53.076Z,7.73
2023-11-17T05:49:59.615Z,7.60
2023-11-17T05:51:07.169Z,7.95
2023-11-17T05:52:09.372Z,7.53
2023-11-17T05:53:11.569Z,6.83
2023-11-17T05:54:13.557Z,7.22
2023-11-17T05:55:18.481Z,7.97
2023-11-17T05:56:21.801Z,7.27
2023-11-17T05:57:23.924Z,6.87
2023-11-17T05:58:25.986Z,6.87
2023-11-17T05:59:27.974Z,7.10
2023-11-17T06:00:29.915Z,7.20
2023-11-17T06:01:31.892Z,7.07
2023-11-17T06:02:34.745Z,7.40
2023-11-17T06:03:36.818Z,7.57
2023-11-17T06:04:38.932Z,7.07
2023-11-17T06:05:40.955Z,7.07
2023-11-17T06:06:42.885Z,7.13
2023-11-17T06:07:44.858Z,7.47
2023-11-17T06:08:46.978Z,7.57
2023-11-17T06:09:49.660Z,7.40
2023-11-17T06:10:51.628Z,7.18
2023-11-17T06:11:54.960Z,7.23
2023-11-17T06:12:56.979Z,7.15
2023-11-17T06:13:59.188Z,6.97
2023-11-17T06:15:02.172Z,7.25
2023-11-17T06:16:05.823Z,6.95
2023-11-17T06:17:10.459Z,6.95
2023-11-17T06:18:17.642Z,6.88
2023-11-17T06:19:19.700Z,6.80
2023-11-17T06:20:21.721Z,6.93
2023-11-17T06:21:23.740Z,6.82
2023-11-17T06:22:25.743Z,7.17
2023-11-17T06:23:27.783Z,7.08
2023-11-17T06:24:29.788Z,7.17
2023-11-17T06:25:33.580Z,6.87
2023-11-17T06:26:36.453Z,6.87
2023-11-17T06:27:41.874Z,6.60
2023-11-17T06:28:43.847Z,7.27
2023-11-17T06:29:46.220Z,7.28
2023-11-17T06:30:48.183Z,7.48
2023-11-17T06:31:50.769Z,7.38
2023-11-17T06:32:52.877Z,7.42
2023-11-17T06:33:54.954Z,8.55
2023-11-17T06:34:56.955Z,8.37
2023-11-17T06:36:01.827Z,7.78
2023-11-17T06:37:04.073Z,8.10
2023-11-17T06:38:06.086Z,9.43
2023-11-17T06:39:15.477Z,9.33
2023-11-17T06:40:17.563Z,9.53
2023-11-17T06:41:19.559Z,10.10
2023-11-17T06:42:23.922Z,9.43
2023-11-17T06:43:25.946Z,9.68
2023-11-17T06:44:27.973Z,10.02
2023-11-17T06:45:29.917Z,9.80
2023-11-17T06:46:32.395Z,9.33
2023-11-17T06:47:34.499Z,9.52
2023-11-17T06:48:39.134Z,9.38
2023-11-17T06:49:41.132Z,9.03
2023-11-17T06:50:43.240Z,9.10
2023-11-17T06:51:45.774Z,9.77
2023-11-17T06:52:47.749Z,8.78
2023-11-17T06:53:51.108Z,9.37
2023-11-17T06:54:53.122Z,8.80
2023-11-17T06:55:55.144Z,9.03
2023-11-17T06:56:57.147Z,9.22
2023-11-17T06:57:59.205Z,9.95
2023-11-17T06:59:01.255Z,9.77
2023-11-17T07:00:08.767Z,9.95
2023-11-17T07:01:10.833Z,10.53
2023-11-17T07:02:12.878Z,9.85
2023-11-17T07:03:14.947Z,9.63
2023-11-17T07:04:17.069Z,10.23
2023-11-17T07:05:19.898Z,9.68
2023-11-17T07:06:26.456Z,9.35
2023-11-17T07:07:28.474Z,9.72
2023-11-17T07:08:30.496Z,9.28
2023-11-17T07:09:33.615Z,9.38
2023-11-17T07:10:35.703Z,10.00
2023-11-17T07:11:37.812Z,9.90
2023-11-17T07:12:39.753Z,9.50
2023-11-17T07:13:41.810Z,8.90
2023-11-17T07:14:43.879Z,9.22
2023-11-17T07:15:45.863Z,9.65
2023-11-17T07:16:48.504Z,9.80
2023-11-17T07:17:53.298Z,9.98
2023-11-17T07:18:55.461Z,9.45
2023-11-17T07:19:57.632Z,9.95
2023-11-17T07:20:59.908Z,9.95
2023-11-17T07:22:02.840Z,9.48
2023-11-17T07:23:04.884Z,10.08
2023-11-17T07:24:07.637Z,9.72
2023-11-17T07:25:12.224Z,9.13
2023-11-17T07:26:19.281Z,9.65
2023-11-17T07:27:21.291Z,9.25
2023-11-17T07:28:23.375Z,9.30
2023-11-17T07:29:25.439Z,9.35
2023-11-17T07:30:27.384Z,8.90
2023-11-17T07:31:29.712Z,8.80
2023-11-17T07:32:31.878Z,9.40
2023-11-17T07:33:33.938Z,9.18
2023-11-17T07:34:36.035Z,9.23
2023-11-17T07:35:41.402Z,9.52
2023-11-17T07:36:43.924Z,9.35
2023-11-17T07:37:46.301Z,9.00
2023-11-17T07:38:53.152Z,8.78
2023-11-17T07:39:55.268Z,8.65
2023-11-17T07:40:57.230Z,8.63
2023-11-17T07:41:59.466Z,9.10
2023-11-17T07:43:01.452Z,9.15
2023-11-17T07:44:04.157Z,9.62
2023-11-17T07:45:08.928Z,9.22
2023-11-17T07:46:10.954Z,8.93
2023-11-17T07:47:14.224Z,8.97
2023-11-17T07:48:19.541Z,8.05
2023-11-17T07:49:23.168Z,8.60
2023-11-17T07:50:25.164Z,8.27
2023-11-17T07:51:27.999Z,8.68
2023-11-17T07:52:30.054Z,8.07
2023-11-17T07:53:32.223Z,8.12
2023-11-17T07:54:34.176Z,9.08
2023-11-17T07:55:36.267Z,8.63
2023-11-17T07:56:38.362Z,8.55
2023-11-17T07:57:41.997Z,9.03
2023-11-17T07:58:44.010Z,8.55
2023-11-17T07:59:47.246Z,8.67
2023-11-17T08:00:49.528Z,8.72
2023-11-17T08:01:51.498Z,8.82
2023-11-17T08:02:53.554Z,8.27
2023-11-17T08:03:56.464Z,8.43
2023-11-17T08:04:58.655Z,8.10
2023-11-17T08:06:00.713Z,8.53
2023-11-17T08:07:03.138Z,8.55
2023-11-17T08:08:05.433Z,8.48
2023-11-17T08:09:11.177Z,8.07
2023-11-17T08:10:14.570Z,9.17
2023-11-17T08:11:17.004Z,9.10
2023-11-17T08:12:20.020Z,8.82
2023-11-17T08:13:22.543Z,9.25
2023-11-17T08:14:26.093Z,9.03
2023-11-17T08:15:30.433Z,9.43
2023-11-17T08:16:35.019Z,8.65
2023-11-17T08:17:39.249Z,8.65
2023-11-17T08:18:41.342Z,9.07
2023-11-17T08:19:43.315Z,9.43
2023-11-17T08:20:46.621Z,9.33
2023-11-17T08:21:50.141Z,8.80
2023-11-17T08:22:52.815Z,9.05
2023-11-17T08:23:55.152Z,9.13
2023-11-17T08:24:58.689Z,9.12
2023-11-17T08:26:00.871Z,9.17
2023-11-17T08:27:03.251Z,8.80
2023-11-17T08:28:08.358Z,8.77
2023-11-17T08:29:10.344Z,9.25
2023-11-17T08:30:12.521Z,8.73
2023-11-17T08:31:16.002Z,9.48
2023-11-17T08:32:18.346Z,9.38
2023-11-17T08:33:20.540Z,9.72
2023-11-17T08:34:23.186Z,10.12
2023-11-17T08:35:25.441Z,11.95
2023-11-17T08:36:29.385Z,12.50
2023-11-17T08:37:34.015Z,11.18
2023-11-17T08:38:36.188Z,10.68
2023-11-17T08:39:39.621Z,10.60
2023-11-17T08:40:41.921Z,11.70
2023-11-17T08:41:43.929Z,11.30
2023-11-17T08:42:46.099Z,11.83
2023-11-17T08:43:48.349Z,11.93
2023-11-17T08:44:50.363Z,12.73
2023-11-17T08:45:54.200Z,12.03
2023-11-17T08:46:56.514Z,12.33
2023-11-17T08:48:02.417Z,12.10
2023-11-17T08:49:05.891Z,12.20
2023-11-17T08:50:09.313Z,10.83
2023-11-17T08:51:11.324Z,10.80
2023-11-17T08:52:14.343Z,11.73
2023-11-17T08:53:17.786Z,12.12
2023-11-17T08:54:19.893Z,12.27
2023-11-17T08:55:24.580Z,11.97
2023-11-17T08:56:26.596Z,10.72
2023-11-17T08:57:28.583Z,10.88
2023-11-17T08:58:30.645Z,10.40
2023-11-17T08:59:32.670Z,10.50
2023-11-17T09:00:35.099Z,9.88
2023-11-17T09:01:37.139Z,9.83
2023-11-17T09:02:42.874Z,10.48
2023-11-17T09:03:44.894Z,10.30
2023-11-17T09:04:48.412Z,10.65
2023-11-17T09:05:50.428Z,10.42
2023-11-17T09:06:53.993Z,11.03
2023-11-17T09:07:57.101Z,11.43
2023-11-17T09:08:59.102Z,11.12
2023-11-17T09:10:01.128Z,11.85
2023-11-17T09:11:04.351Z,12.60
2023-11-17T09:12:06.716Z,12.35
2023-11-17T09:13:09.921Z,12.72
2023-11-17T09:14:11.944Z,12.47
2023-11-17T09:15:20.243Z,12.07
2023-11-17T09:16:24.130Z,11.08
2023-11-17T09:17:29.334Z,11.00
2023-11-17T09:18:35.755Z,11.63
2023-11-17T09:19:39.298Z,11.47
2023-11-17T09:20:41.575Z,11.45
2023-11-17T09:21:44.094Z,12.62
2023-11-17T09:22:46.709Z,13.17
2023-11-17T09:23:48.696Z,12.78
2023-11-17T09:24:51.576Z,12.05
2023-11-17T09:25:53.646Z,12.50
2023-11-17T09:26:55.649Z,11.70
2023-11-17T09:28:00.866Z,11.68
2023-11-17T09:29:02.884Z,11.53
2023-11-17T09:30:06.371Z,10.78
2023-11-17T09:31:08.675Z,11.02
2023-11-17T09:32:13.765Z,11.20
2023-11-17T09:33:15.786Z,11.73
2023-11-17T09:34:18.295Z,11.47
2023-11-17T09:35:22.983Z,11.93
2023-11-17T09:36:26.885Z,11.95
2023-11-17T09:37:30.054Z,11.28
2023-11-17T09:38:37.007Z,10.78
2023-11-17T09:39:39.718Z,10.55
2023-11-17T09:40:42.419Z,10.60
2023-11-17T09:41:44.641Z,10.62
2023-11-17T09:42:47.240Z,9.98
2023-11-17T09:43:49.182Z,10.05
2023-11-17T09:44:51.180Z,9.97
2023-11-17T09:45:53.138Z,9.48
2023-11-17T09:46:55.640Z,8.90
2023-11-17T09:47:58.985Z,7.82
2023-11-17T09:49:04.534Z,7.48
2023-11-17T09:50:06.990Z,7.93
2023-11-17T09:51:08.956Z,8.62
2023-11-17T09:52:11.637Z,8.13
2023-11-17T09:53:16.431Z,7.60
2023-11-17T09:54:23.532Z,6.67
2023-11-17T09:55:29.396Z,6.57
2023-11-17T09:56:31.741Z,6.47
2023-11-17T09:57:35.794Z,6.33
2023-11-17T09:58:38.185Z,6.27
2023-11-17T09:59:43.878Z,6.18
2023-11-17T10:00:47.484Z,6.20
2023-11-17T10:01:49.668Z,5.98
2023-11-17T10:03:00.486Z,5.50
2023-11-17T10:04:03.648Z,5.58
2023-11-17T10:05:06.679Z,5.62
2023-11-17T10:06:10.037Z,5.52
2023-11-17T10:07:13.023Z,6.22
2023-11-17T10:08:16.248Z,6.68
2023-11-17T10:09:18.488Z,6.92
2023-11-17T10:10:20.711Z,6.53
2023-11-17T10:11:22.714Z,5.88
2023-11-17T10:12:24.960Z,6.87
2023-11-17T10:13:27.100Z,6.07
2023-11-17T10:14:29.194Z,6.07
2023-11-17T10:15:32.892Z,5.65
2023-11-17T10:16:34.944Z,5.75
2023-11-17T10:17:37.859Z,5.73
2023-11-17T10:18:41.568Z,6.23
2023-11-17T10:19:43.664Z,6.60
2023-11-17T10:20:47.148Z,6.17
2023-11-17T10:21:50.849Z,6.30
2023-11-17T10:22:54.184Z,5.98
2023-11-17T10:23:56.154Z,6.18
2023-11-17T10:24:58.987Z,6.43
2023-11-17T10:26:02.425Z,6.02
2023-11-17T10:27:04.749Z,6.03
2023-11-17T10:28:06.755Z,5.90
2023-11-17T10:29:11.027Z,5.72
2023-11-17T10:30:13.674Z,5.53
2023-11-17T10:31:18.702Z,5.75
2023-11-17T10:32:36.452Z,5.17
2023-11-17T10:33:45.838Z,5.08
2023-11-17T10:35:12.894Z,4.38
2023-11-17T10:36:17.630Z,4.67
2023-11-17T10:37:20.927Z,4.67
2023-11-17T10:38:22.985Z,4.23
2023-11-17T10:39:25.767Z,4.37
2023-11-17T10:40:33.016Z,4.47
2023-11-17T10:41:35.102Z,5.05
2023-11-17T10:42:37.093Z,4.42
2023-11-17T10:43:53.246Z,4.37
2023-11-17T10:44:55.460Z,4.57
2023-11-17T10:45:59.121Z,4.20
2023-11-17T10:47:03.800Z,4.55
2023-11-17T10:48:09.193Z,4.80
2023-11-17T10:49:16.782Z,4.35
2023-11-17T10:50:18.857Z,4.43
2023-11-17T10:51:22.918Z,4.72
2023-11-17T10:52:31.784Z,4.82
2023-11-17T10:53:33.809Z,4.33
2023-11-17T10:54:36.069Z,4.38
2023-11-17T10:55:38.077Z,4.68
2023-11-17T10:56:44.746Z,4.70
2023-11-17T10:58:04.406Z,5.02
2023-11-17T10:59:11.082Z,4.73
2023-11-17T11:00:22.972Z,4.92
2023-11-17T11:01:31.143Z,5.38
2023-11-17T11:02:33.311Z,5.52
2023-11-17T11:03:35.443Z,5.37
2023-11-17T11:04:37.604Z,5.10
2023-11-17T11:05:39.868Z,5.33
2023-11-17T11:06:43.733Z,5.37
2023-11-17T11:07:45.882Z,5.30
2023-11-17T11:08:57.788Z,5.40
2023-11-17T11:09:59.826Z,5.72
2023-11-17T11:11:05.367Z,5.53
2023-11-17T11:12:11.675Z,5.05
2023-11-17T11:13:16.364Z,4.97
2023-11-17T11:14:18.596Z,5.22
2023-11-17T11:15:21.320Z,5.22
2023-11-17T11:16:26.249Z,4.90
2023-11-17T11:17:28.507Z,5.77
2023-11-17T11:18:33.465Z,5.77
2023-11-17T11:19:41.699Z,6.08
2023-11-17T11:20:51.410Z,5.95
2023-11-17T11:22:02.541Z,5.52
2023-11-17T11:23:06.534Z,5.80
2023-11-17T11:24:09.513Z,5.57
2023-11-17T11:25:13.610Z,5.63
2023-11-17T11:26:18.028Z,5.72
2023-11-17T11:27:19.984Z,5.55
2023-11-17T11:28:22.738Z,5.88
2023-11-17T11:29:25.201Z,5.45
2023-11-17T11:30:28.214Z,5.90
2023-11-17T11:31:32.228Z,5.90
2023-11-17T11:32:36.322Z,5.95
2023-11-17T11:33:38.332Z,5.85
2023-11-17T11:34:40.638Z,6.03
2023-11-17T11:35:43.384Z,5.68
2023-11-17T11:36:48.913Z,5.85
2023-11-17T11:37:53.800Z,5.53
2023-11-17T11:38:57.306Z,5.60
2023-11-17T11:40:01.997Z,5.68
2023-11-17T11:41:04.744Z,5.25
2023-11-17T11:42:08.773Z,5.02
2023-11-17T11:43:11.921Z,5.20
2023-11-17T11:44:14.089Z,5.92
2023-11-17T11:45:18.705Z,5.60
2023-11-17T11:46:22.384Z,5.33
2023-11-17T11:47:25.834Z,5.40
2023-11-17T11:48:31.950Z,5.45
2023-11-17T11:49:34.784Z,5.27
2023-11-17T11:50:39.712Z,5.15
2023-11-17T11:51:58.717Z,5.02
2023-11-17T11:53:15.334Z,5.60
2023-11-17T11:54:17.321Z,5.13
2023-11-17T11:55:19.402Z,4.45
2023-11-17T11:56:23.038Z,4.22
2023-11-17T11:57:32.555Z,4.57
2023-11-17T11:58:40.988Z,4.93
2023-11-17T11:59:42.977Z,4.95
2023-11-17T12:00:46.909Z,4.50
2023-11-17T12:01:50.623Z,4.62
2023-11-17T12:02:56.177Z,4.82
2023-11-17T12:04:07.257Z,4.80
2023-11-17T12:05:11.074Z,4.43
2023-11-17T12:06:21.300Z,4.80
2023-11-17T12:07:37.960Z,4.50
2023-11-17T12:08:39.998Z,4.48
2023-11-17T12:09:44.820Z,4.12
2023-11-17T12:10:46.862Z,4.70
2023-11-17T12:11:50.601Z,4.17
2023-11-17T12:12:53.150Z,3.68
2023-11-17T12:13:56.070Z,4.02
2023-11-17T12:14:58.983Z,3.80
2023-11-17T12:16:02.439Z,3.53
2023-11-17T12:17:08.516Z,3.63
2023-11-17T12:18:12.690Z,3.43
2023-11-17T12:19:17.356Z,3.38
2023-11-17T12:20:25.943Z,3.63
2023-11-17T12:21:28.051Z,3.38
2023-11-17T12:22:57.785Z,3.87
2023-11-17T12:24:05.480Z,3.63
2023-11-17T12:25:07.584Z,3.48
2023-11-17T12:26:09.718Z,3.97
2023-11-17T12:27:14.320Z,3.65
2023-11-17T12:28:18.054Z,3.73
2023-11-17T12:29:24.874Z,3.80
2023-11-17T12:30:27.569Z,3.73
2023-11-17T12:31:30.800Z,3.78
2023-11-17T12:32:34.705Z,3.75
2023-11-17T12:33:36.875Z,3.63
2023-11-17T12:34:43.499Z,3.58
2023-11-17T12:35:46.752Z,3.50
2023-11-17T12:36:58.177Z,3.77
2023-11-17T12:38:03.571Z,4.03
2023-11-17T12:39:08.218Z,4.20
2023-11-17T12:40:20.031Z,3.80
2023-11-17T12:41:26.249Z,4.03
2023-11-17T12:42:30.922Z,4.25
2023-11-17T12:43:33.002Z,4.13
2023-11-17T12:44:35.032Z,4.30
2023-11-17T12:45:39.364Z,4.48
2023-11-17T12:46:42.081Z,4.20
2023-11-17T12:47:45.502Z,4.25
2023-11-17T12:48:47.643Z,4.13
2023-11-17T12:49:55.867Z,4.00
2023-11-17T12:50:59.209Z,4.23
2023-11-17T12:52:08.309Z,4.08
2023-11-17T12:53:11.399Z,4.05
2023-11-17T12:54:17.570Z,4.22
2023-11-17T12:55:19.676Z,4.35
2023-11-17T12:56:23.618Z,4.68
2023-11-17T12:57:26.130Z,4.57
2023-11-17T12:58:32.380Z,4.73
2023-11-17T12:59:34.670Z,4.38
2023-11-17T13:00:39.375Z,4.42
2023-11-17T13:01:42.283Z,4.37
2023-11-17T13:02:44.451Z,4.32
2023-11-17T13:03:48.221Z,4.08
2023-11-17T13:04:50.414Z,4.02
2023-11-17T13:05:54.240Z,4.27
2023-11-17T13:06:56.277Z,4.58
2023-11-17T13:07:58.276Z,4.27
2023-11-17T13:09:01.419Z,4.25
2023-11-17T13:10:05.003Z,4.02
2023-11-17T13:11:11.527Z,4.18
2023-11-17T13:12:14.449Z,3.97
2023-11-17T13:13:19.752Z,3.60
2023-11-17T13:14:22.173Z,3.68
2023-11-17T13:15:24.513Z,3.97
2023-11-17T13:16:30.327Z,3.78
2023-11-17T13:17:37.429Z,3.82
2023-11-17T13:18:43.112Z,3.43
2023-11-17T13:19:45.146Z,3.18
2023-11-17T13:20:47.893Z,3.25
2023-11-17T13:21:49.978Z,3.07
2023-11-17T13:22:52.484Z,3.35
2023-11-17T13:23:56.058Z,3.62
2023-11-17T13:25:02.328Z,3.20
2023-11-17T13:26:14.238Z,3.47
2023-11-17T13:27:16.217Z,3.33
2023-11-17T13:28:18.218Z,3.32
2023-11-17T13:29:20.596Z,3.62
2023-11-17T13:30:23.050Z,3.50
2023-11-17T13:31:26.412Z,3.50
2023-11-17T13:32:28.521Z,3.45
2023-11-17T13:33:42.305Z,3.57
2023-11-17T13:34:56.534Z,3.83
2023-11-17T13:35:59.316Z,3.48
2023-11-17T13:37:01.356Z,3.75
2023-11-17T13:38:06.195Z,3.98
2023-11-17T13:39:11.313Z,3.82
2023-11-17T13:40:34.859Z,3.68
2023-11-17T13:41:39.729Z,4.00
2023-11-17T13:42:41.719Z,3.57
2023-11-17T13:43:43.783Z,3.82
2023-11-17T13:44:45.776Z,4.17
2023-11-17T13:45:49.489Z,4.00
2023-11-17T13:46:52.129Z,4.35
2023-11-17T13:48:05.114Z,4.15
2023-11-17T13:49:13.946Z,4.15
2023-11-17T13:50:16.451Z,4.03
2023-11-17T13:51:20.826Z,4.68
2023-11-17T13:52:23.827Z,4.65
2023-11-17T13:53:29.261Z,4.93
2023-11-17T13:54:35.679Z,4.08
2023-11-17T13:55:38.649Z,3.98
2023-11-17T13:56:45.500Z,4.27
2023-11-17T13:57:47.527Z,4.45
2023-11-17T13:58:49.784Z,4.28
2023-11-17T13:59:51.830Z,4.47
2023-11-17T14:00:54.463Z,4.53
2023-11-17T14:02:00.356Z,4.77
2023-11-17T14:03:02.825Z,4.65
2023-11-17T14:04:07.529Z,4.53